An Run Da 2 — BHNX — position and weather

sailwx.info

Track history (hours):
 
Tides and Currents Weather Stations Pressure Air Temp Water Temp Dewpoint Dewpoint Depression Visibility Wind Speed Wind Dir Waves Ship Positions

An Run Da 2

Last reported at 2017-Sep-21 09:52 UTC. Time now 2017-Sep-23 05:55 UTC.
Position N 22°31' E 113°44'.

Length 147 m; draft 5 m.

Type: Cargo ship. MMSI: 413360230.

Date/timePositionNaut miles runAvg speedWind from/ knotsBaromVisibWave heightAir tempDewpointWater temp
2017-Sep-21 09:52N 22°31' E 113°44'410.1
2017-Sep-21 09:30N 22°35' E 113°43'5 9.7
2017-Sep-21 09:00N 22°40' E 113°41'5 9.8
2017-Sep-21 08:30N 22°44' E 113°40'510.7
2017-Sep-21 08:01N 22°48' E 113°36'4 8.7
2017-Sep-21 07:30N 22°52' E 113°34'2 4.6
2017-Sep-21 07:00N 22°54' E 113°35'0 0.3
2017-Sep-21 06:30N 22°54' E 113°35'0 0.0
2017-Sep-21 06:00N 22°54' E 113°35'0 0.0
2017-Sep-21 05:30N 22°54' E 113°35'0 0.0
2017-Sep-21 04:59N 22°54' E 113°35'0 0.0
2017-Sep-21 04:30N 22°54' E 113°35'0 0.0
2017-Sep-21 04:00N 22°54' E 113°35'0 0.0
2017-Sep-21 03:30N 22°54' E 113°35'0 0.0
2017-Sep-21 03:00N 22°54' E 113°35'0 0.0
2017-Sep-21 02:30N 22°54' E 113°35'0 0.0
2017-Sep-21 02:00N 22°54' E 113°35'0 0.0
2017-Sep-21 01:30N 22°54' E 113°35'0 0.0
2017-Sep-21 01:00N 22°54' E 113°35'0 0.0
2017-Sep-21 00:29N 22°54' E 113°35'0 0.0
2017-Sep-20 23:59N 22°54' E 113°35'0 0.0
2017-Sep-20 23:29N 22°54' E 113°35'0 0.0
2017-Sep-20 22:59N 22°54' E 113°35'0 0.0
2017-Sep-20 22:29N 22°54' E 113°35'0 0.0
2017-Sep-20 21:59N 22°54' E 113°35'0 0.0
2017-Sep-20 21:05N 22°54' E 113°35'0 0.0
2017-Sep-20 20:59N 22°54' E 113°35'0 0.0
2017-Sep-20 20:11N 22°54' E 113°35'0 0.0
2017-Sep-20 19:54N 22°54' E 113°35'0 0.0
2017-Sep-20 19:22N 22°54' E 113°35'0 0.0
2017-Sep-20 17:47N 22°54' E 113°35'0 0.0
2017-Sep-20 17:19N 22°54' E 113°35'0 0.0
2017-Sep-20 16:53N 22°54' E 113°35'0 0.0
2017-Sep-20 16:30N 22°54' E 113°35'0 0.0
2017-Sep-20 15:11N 22°54' E 113°35'0 0.0
2017-Sep-20 14:41N 22°54' E 113°35'0 0.0
2017-Sep-20 14:00N 22°54' E 113°35'0 0.0
2017-Sep-20 13:31N 22°54' E 113°35'0 0.0
2017-Sep-20 12:59N 22°54' E 113°35'0 0.0
2017-Sep-20 12:28N 22°54' E 113°35'0 0.1
2017-Sep-20 11:58N 22°54' E 113°35'0 0.0
2017-Sep-20 11:29N 22°54' E 113°35'0 0.0
2017-Sep-20 10:59N 22°54' E 113°35'0 0.0
2017-Sep-20 10:29N 22°54' E 113°35'0 0.0
2017-Sep-20 09:59N 22°54' E 113°35'0 0.0
2017-Sep-20 09:29N 22°54' E 113°35'0 0.0
2017-Sep-20 08:59N 22°54' E 113°35'0 0.0
2017-Sep-20 08:30N 22°54' E 113°35'0 0.0
2017-Sep-20 07:20N 22°54' E 113°35'0 0.0
2017-Sep-20 05:59N 22°54' E 113°35'0 0.0
2017-Sep-20 05:29N 22°54' E 113°35'0 0.0
2017-Sep-20 04:59N 22°54' E 113°35'0 0.0
2017-Sep-20 04:29N 22°54' E 113°35'0 0.0
2017-Sep-20 03:58N 22°54' E 113°35'0 0.0
2017-Sep-20 03:26N 22°54' E 113°35'0 0.0
2017-Sep-20 02:57N 22°54' E 113°35'0 0.0
2017-Sep-20 02:30N 22°54' E 113°35'0 0.0
2017-Sep-20 01:58N 22°54' E 113°35'0 0.0
2017-Sep-20 01:29N 22°54' E 113°35'0 0.0
2017-Sep-20 00:59N 22°54' E 113°35'0 0.0
2017-Sep-20 00:26N 22°54' E 113°35'0 0.0
2017-Sep-19 23:59N 22°54' E 113°35'0 0.1
2017-Sep-19 23:29N 22°54' E 113°35'0 0.1
2017-Sep-19 23:00N 22°54' E 113°35'0 0.0
2017-Sep-19 22:30N 22°54' E 113°35'0 0.1
2017-Sep-19 21:57N 22°54' E 113°35'0 0.0
2017-Sep-19 21:30N 22°54' E 113°35'0 0.1
2017-Sep-19 21:00N 22°54' E 113°35'0 0.0
2017-Sep-19 20:30N 22°54' E 113°35'0 0.0
2017-Sep-19 20:00N 22°54' E 113°35'0 0.0
2017-Sep-19 19:30N 22°54' E 113°35'0 0.0
2017-Sep-19 19:00N 22°54' E 113°35'0 0.9
2017-Sep-19 18:30N 22°54' E 113°35'1 3.0
2017-Sep-19 18:00N 22°53' E 113°34'2 4.4
2017-Sep-19 17:31N 22°51' E 113°35'3 5.8
2017-Sep-19 17:00N 22°48' E 113°37'3 6.1
2017-Sep-19 16:30N 22°46' E 113°38'3 6.2
2017-Sep-19 16:00N 22°43' E 113°40'3 6.5
2017-Sep-19 15:30N 22°40' E 113°41'610.7
2017-Sep-19 14:58N 22°35' E 113°43'  
2017-Sep-15 02:43N 22°28' E 113°45'411.7
2017-Sep-15 02:23N 22°32' E 113°44'8 0.3
2017-Sep-13 18:54N 22°40' E 113°43'0 0.1
2017-Sep-13 18:22N 22°40' E 113°43'1 3.2
2017-Sep-13 17:56N 22°40' E 113°42'2 3.5
2017-Sep-13 17:29N 22°41' E 113°40'0 0.0
2017-Sep-12 23:58N 22°41' E 113°40'0 0.0
2017-Sep-11 21:05N 22°41' E 113°40'0 0.0
2017-Sep-11 20:56N 22°41' E 113°40'0 0.0
2017-Sep-11 20:20N 22°41' E 113°40'0 0.0
2017-Sep-11 19:41N 22°41' E 113°40'0 0.0
2017-Sep-11 19:29N 22°41' E 113°40'0 0.0
2017-Sep-11 17:54N 22°41' E 113°40'0 0.0
2017-Sep-11 16:09N 22°41' E 113°40'0 0.0
2017-Sep-11 16:00N 22°41' E 113°40'0 0.1
2017-Sep-11 15:30N 22°41' E 113°40'1 2.5
2017-Sep-11 15:00N 22°40' E 113°41'4 7.9
2017-Sep-11 14:29N 22°36' E 113°43'5 9.6
2017-Sep-11 14:00N 22°32' E 113°44'  
Track history (hours):
 
Tides and Currents Weather Stations Pressure Air Temp Water Temp Dewpoint Dewpoint Depression Visibility Wind Speed Wind Dir Waves Ship Positions

An Run Da 2

Last reported at 2017-Sep-21 09:52 UTC. Time now 2017-Sep-23 05:55 UTC.
Position N 22°31' E 113°44'.

Length 147 m; draft 5 m.

Type: Cargo ship. MMSI: 413360230.

Date/timePositionNaut miles runAvg speedWind from/ knotsBaromVisibWave heightAir tempDewpointWater temp
2017-Sep-21 09:52N 22°31' E 113°44'410.1
2017-Sep-21 09:30N 22°35' E 113°43'5 9.7
2017-Sep-21 09:00N 22°40' E 113°41'5 9.8
2017-Sep-21 08:30N 22°44' E 113°40'510.7
2017-Sep-21 08:01N 22°48' E 113°36'4 8.7
2017-Sep-21 07:30N 22°52' E 113°34'2 4.6
2017-Sep-21 07:00N 22°54' E 113°35'0 0.3
2017-Sep-21 06:30N 22°54' E 113°35'0 0.0
2017-Sep-21 06:00N 22°54' E 113°35'0 0.0
2017-Sep-21 05:30N 22°54' E 113°35'0 0.0
2017-Sep-21 04:59N 22°54' E 113°35'0 0.0
2017-Sep-21 04:30N 22°54' E 113°35'0 0.0
2017-Sep-21 04:00N 22°54' E 113°35'0 0.0
2017-Sep-21 03:30N 22°54' E 113°35'0 0.0
2017-Sep-21 03:00N 22°54' E 113°35'0 0.0
2017-Sep-21 02:30N 22°54' E 113°35'0 0.0
2017-Sep-21 02:00N 22°54' E 113°35'0 0.0
2017-Sep-21 01:30N 22°54' E 113°35'0 0.0
2017-Sep-21 01:00N 22°54' E 113°35'0 0.0
2017-Sep-21 00:29N 22°54' E 113°35'0 0.0
2017-Sep-20 23:59N 22°54' E 113°35'0 0.0
2017-Sep-20 23:29N 22°54' E 113°35'0 0.0
2017-Sep-20 22:59N 22°54' E 113°35'0 0.0
2017-Sep-20 22:29N 22°54' E 113°35'0 0.0
2017-Sep-20 21:59N 22°54' E 113°35'0 0.0
2017-Sep-20 21:05N 22°54' E 113°35'0 0.0
2017-Sep-20 20:59N 22°54' E 113°35'0 0.0
2017-Sep-20 20:11N 22°54' E 113°35'0 0.0
2017-Sep-20 19:54N 22°54' E 113°35'0 0.0
2017-Sep-20 19:22N 22°54' E 113°35'0 0.0
2017-Sep-20 17:47N 22°54' E 113°35'0 0.0
2017-Sep-20 17:19N 22°54' E 113°35'0 0.0
2017-Sep-20 16:53N 22°54' E 113°35'0 0.0
2017-Sep-20 16:30N 22°54' E 113°35'0 0.0
2017-Sep-20 15:11N 22°54' E 113°35'0 0.0
2017-Sep-20 14:41N 22°54' E 113°35'0 0.0
2017-Sep-20 14:00N 22°54' E 113°35'0 0.0
2017-Sep-20 13:31N 22°54' E 113°35'0 0.0
2017-Sep-20 12:59N 22°54' E 113°35'0 0.0
2017-Sep-20 12:28N 22°54' E 113°35'0 0.1
2017-Sep-20 11:58N 22°54' E 113°35'0 0.0
2017-Sep-20 11:29N 22°54' E 113°35'0 0.0
2017-Sep-20 10:59N 22°54' E 113°35'0 0.0
2017-Sep-20 10:29N 22°54' E 113°35'0 0.0
2017-Sep-20 09:59N 22°54' E 113°35'0 0.0
2017-Sep-20 09:29N 22°54' E 113°35'0 0.0
2017-Sep-20 08:59N 22°54' E 113°35'0 0.0
2017-Sep-20 08:30N 22°54' E 113°35'0 0.0
2017-Sep-20 07:20N 22°54' E 113°35'0 0.0
2017-Sep-20 05:59N 22°54' E 113°35'0 0.0
2017-Sep-20 05:29N 22°54' E 113°35'0 0.0
2017-Sep-20 04:59N 22°54' E 113°35'0 0.0
2017-Sep-20 04:29N 22°54' E 113°35'0 0.0
2017-Sep-20 03:58N 22°54' E 113°35'0 0.0
2017-Sep-20 03:26N 22°54' E 113°35'0 0.0
2017-Sep-20 02:57N 22°54' E 113°35'0 0.0
2017-Sep-20 02:30N 22°54' E 113°35'0 0.0
2017-Sep-20 01:58N 22°54' E 113°35'0 0.0
2017-Sep-20 01:29N 22°54' E 113°35'0 0.0
2017-Sep-20 00:59N 22°54' E 113°35'0 0.0
2017-Sep-20 00:26N 22°54' E 113°35'0 0.0
2017-Sep-19 23:59N 22°54' E 113°35'0 0.1
2017-Sep-19 23:29N 22°54' E 113°35'0 0.1
2017-Sep-19 23:00N 22°54' E 113°35'0 0.0
2017-Sep-19 22:30N 22°54' E 113°35'0 0.1
2017-Sep-19 21:57N 22°54' E 113°35'0 0.0
2017-Sep-19 21:30N 22°54' E 113°35'0 0.1
2017-Sep-19 21:00N 22°54' E 113°35'0 0.0
2017-Sep-19 20:30N 22°54' E 113°35'0 0.0
2017-Sep-19 20:00N 22°54' E 113°35'0 0.0
2017-Sep-19 19:30N 22°54' E 113°35'0 0.0
2017-Sep-19 19:00N 22°54' E 113°35'0 0.9
2017-Sep-19 18:30N 22°54' E 113°35'1 3.0
2017-Sep-19 18:00N 22°53' E 113°34'2 4.4
2017-Sep-19 17:31N 22°51' E 113°35'3 5.8
2017-Sep-19 17:00N 22°48' E 113°37'3 6.1
2017-Sep-19 16:30N 22°46' E 113°38'3 6.2
2017-Sep-19 16:00N 22°43' E 113°40'3 6.5
2017-Sep-19 15:30N 22°40' E 113°41'610.7
2017-Sep-19 14:58N 22°35' E 113°43'  
2017-Sep-15 02:43N 22°28' E 113°45'411.7
2017-Sep-15 02:23N 22°32' E 113°44'8 0.3
2017-Sep-13 18:54N 22°40' E 113°43'0 0.1
2017-Sep-13 18:22N 22°40' E 113°43'1 3.2
2017-Sep-13 17:56N 22°40' E 113°42'2 3.5
2017-Sep-13 17:29N 22°41' E 113°40'0 0.0
2017-Sep-12 23:58N 22°41' E 113°40'0 0.0
2017-Sep-11 21:05N 22°41' E 113°40'0 0.0
2017-Sep-11 20:56N 22°41' E 113°40'0 0.0
2017-Sep-11 20:20N 22°41' E 113°40'0 0.0
2017-Sep-11 19:41N 22°41' E 113°40'0 0.0
2017-Sep-11 19:29N 22°41' E 113°40'0 0.0
2017-Sep-11 17:54N 22°41' E 113°40'0 0.0
2017-Sep-11 16:09N 22°41' E 113°40'0 0.0
2017-Sep-11 16:00N 22°41' E 113°40'0 0.1
2017-Sep-11 15:30N 22°41' E 113°40'1 2.5
2017-Sep-11 15:00N 22°40' E 113°41'4 7.9
2017-Sep-11 14:29N 22°36' E 113°43'5 9.6
2017-Sep-11 14:00N 22°32' E 113°44'  

Dump ship's entire track history